createdAt,value
2022-08-23T00:01:24.225Z,24.11
2022-08-23T00:03:28.654Z,24.14
2022-08-23T00:05:31.433Z,24.12
2022-08-23T00:07:38.042Z,24.11
2022-08-23T00:09:41.088Z,24.09
2022-08-23T00:11:48.238Z,24.08
2022-08-23T00:13:53.638Z,24.05
2022-08-23T00:15:58.813Z,23.99
2022-08-23T00:18:01.240Z,23.99
2022-08-23T00:20:12.800Z,23.92
2022-08-23T00:22:15.875Z,23.94
2022-08-23T00:24:20.054Z,23.92
2022-08-23T00:26:22.428Z,23.91
2022-08-23T00:28:24.682Z,23.88
2022-08-23T00:30:26.990Z,23.86
2022-08-23T00:32:32.890Z,23.84
2022-08-23T00:34:37.035Z,23.85
2022-08-23T00:36:40.051Z,23.85
2022-08-23T00:38:42.396Z,23.83
2022-08-23T00:40:51.313Z,23.78
2022-08-23T00:43:12.137Z,23.79
2022-08-23T00:45:36.489Z,23.73
2022-08-23T00:47:43.098Z,23.72
2022-08-23T00:49:54.025Z,23.68
2022-08-23T00:52:02.850Z,23.65
2022-08-23T00:54:05.942Z,23.67
2022-08-23T00:56:11.244Z,23.67
2022-08-23T00:58:18.557Z,23.64
2022-08-23T01:00:21.367Z,23.63
2022-08-23T01:02:23.902Z,23.63
2022-08-23T01:04:31.168Z,23.63
2022-08-23T01:06:52.124Z,23.59
2022-08-23T01:09:00.213Z,23.55
2022-08-23T01:11:11.587Z,23.52
2022-08-23T01:13:20.195Z,23.53
2022-08-23T01:15:32.151Z,23.51
2022-08-23T01:17:44.729Z,23.50
2022-08-23T01:19:57.646Z,23.41
2022-08-23T01:22:24.544Z,23.41
2022-08-23T01:25:05.940Z,23.42
2022-08-23T01:26:50.676Z,23.42
2022-08-23T01:28:56.388Z,23.35
2022-08-23T01:30:59.716Z,23.39
2022-08-23T01:33:06.457Z,23.29
2022-08-23T01:35:10.761Z,23.30
2022-08-23T01:37:14.355Z,23.24
2022-08-23T01:39:16.766Z,23.15
2022-08-23T01:41:19.440Z,23.15
2022-08-23T01:43:23.172Z,23.17
2022-08-23T01:45:29.025Z,23.19
2022-08-23T01:47:32.052Z,23.18
2022-08-23T01:49:35.400Z,23.16
2022-08-23T01:51:38.929Z,23.15
2022-08-23T01:53:43.176Z,23.14
2022-08-23T01:55:45.580Z,23.12
2022-08-23T01:57:50.689Z,23.13
2022-08-23T01:59:53.834Z,23.08
2022-08-23T02:01:56.792Z,23.04
2022-08-23T02:04:04.872Z,23.06
2022-08-23T02:06:07.704Z,23.04
2022-08-23T02:08:28.708Z,23.07
2022-08-23T02:10:33.527Z,23.01
2022-08-23T02:12:38.875Z,23.00
2022-08-23T02:14:47.347Z,22.92
2022-08-23T02:17:03.045Z,22.80
2022-08-23T02:19:12.868Z,22.76
2022-08-23T02:21:14.827Z,22.79
2022-08-23T02:23:19.065Z,22.81
2022-08-23T02:25:21.291Z,22.83
2022-08-23T02:27:23.423Z,22.86
2022-08-23T02:29:29.732Z,22.93
2022-08-23T02:31:32.527Z,22.91
2022-08-23T02:33:35.505Z,22.94
2022-08-23T02:35:38.874Z,22.94
2022-08-23T02:37:40.998Z,22.91
2022-08-23T02:39:43.822Z,22.88
2022-08-23T02:41:47.988Z,22.86
2022-08-23T02:43:53.796Z,22.85
2022-08-23T02:45:57.660Z,22.88
2022-08-23T02:48:00.366Z,22.85
2022-08-23T02:50:10.396Z,22.90
2022-08-23T02:52:12.762Z,22.93
2022-08-23T02:54:15.109Z,22.94
2022-08-23T02:56:21.911Z,22.96
2022-08-23T02:58:26.671Z,22.98
2022-08-23T03:00:29.025Z,22.99
2022-08-23T03:02:31.617Z,22.98
2022-08-23T03:04:34.534Z,22.98
2022-08-23T03:06:39.424Z,22.98
2022-08-23T03:08:42.709Z,23.01
2022-08-23T03:10:48.774Z,23.04
2022-08-23T03:12:51.086Z,23.11
2022-08-23T03:14:53.911Z,23.14
2022-08-23T03:16:58.341Z,23.19
2022-08-23T03:19:02.419Z,23.22
2022-08-23T03:21:06.954Z,23.24
2022-08-23T03:23:10.432Z,23.21
2022-08-23T03:25:12.760Z,23.20
2022-08-23T03:27:44.628Z,23.23
2022-08-23T03:29:49.111Z,23.26
2022-08-23T03:31:51.879Z,23.24
2022-08-23T03:33:56.967Z,23.22
2022-08-23T03:36:02.178Z,23.19
2022-08-23T03:38:05.530Z,23.18
2022-08-23T03:40:08.603Z,23.13
2022-08-23T03:42:10.867Z,23.18
2022-08-23T03:44:12.982Z,23.22
2022-08-23T03:46:24.611Z,23.24
2022-08-23T03:48:33.290Z,23.20
2022-08-23T03:50:35.643Z,23.13
2022-08-23T03:52:37.886Z,23.14
2022-08-23T03:54:40.144Z,23.16
2022-08-23T03:57:03.055Z,23.13
2022-08-23T03:59:13.683Z,23.19
2022-08-23T04:01:16.377Z,23.10
2022-08-23T04:03:18.709Z,23.14
2022-08-23T04:05:38.437Z,23.08
2022-08-23T04:07:47.903Z,23.12
2022-08-23T04:09:54.841Z,23.14
2022-08-23T04:11:59.967Z,23.12
2022-08-23T04:14:02.903Z,23.13
2022-08-23T04:16:06.322Z,23.08
2022-08-23T04:18:09.468Z,23.07
2022-08-23T04:20:12.139Z,23.09
2022-08-23T04:22:24.988Z,23.09
2022-08-23T04:24:27.966Z,23.10
2022-08-23T04:26:30.713Z,23.11
2022-08-23T04:28:34.402Z,23.11
2022-08-23T04:30:36.659Z,23.08
2022-08-23T04:32:41.258Z,23.10
2022-08-23T04:34:51.366Z,23.12
2022-08-23T04:36:55.186Z,23.14
2022-08-23T04:38:58.049Z,23.17
2022-08-23T04:41:18.791Z,23.13
2022-08-23T04:43:21.959Z,23.14
2022-08-23T04:45:27.346Z,23.06
2022-08-23T04:47:29.810Z,23.17
2022-08-23T04:49:38.322Z,23.17
2022-08-23T04:51:40.900Z,23.17
2022-08-23T04:53:44.550Z,23.00
2022-08-23T04:56:06.261Z,23.09
2022-08-23T04:58:10.027Z,23.18
2022-08-23T05:00:21.438Z,23.11
2022-08-23T05:02:30.538Z,23.21
2022-08-23T05:04:32.862Z,23.30
2022-08-23T05:06:35.725Z,23.34
2022-08-23T05:08:39.151Z,23.42
2022-08-23T05:10:42.840Z,23.50
2022-08-23T05:12:48.654Z,23.57
2022-08-23T05:14:52.797Z,23.65
2022-08-23T05:16:58.045Z,23.70
2022-08-23T05:19:00.919Z,23.81
2022-08-23T05:21:03.751Z,23.90
2022-08-23T05:23:06.664Z,24.01
2022-08-23T05:25:11.111Z,24.08
2022-08-23T05:27:14.212Z,24.11
2022-08-23T05:29:16.724Z,24.25
2022-08-23T05:31:27.369Z,24.33
2022-08-23T05:33:37.350Z,24.43
2022-08-23T05:35:40.502Z,24.55
2022-08-23T05:37:43.030Z,24.53
2022-08-23T05:39:46.006Z,24.63
2022-08-23T05:41:48.843Z,24.63
2022-08-23T05:43:51.237Z,24.70
2022-08-23T05:46:26.632Z,24.70
2022-08-23T05:48:57.142Z,24.76
2022-08-23T05:51:19.378Z,24.79
2022-08-23T05:53:23.617Z,24.90
2022-08-23T05:55:27.638Z,24.98
2022-08-23T05:57:55.033Z,25.08
2022-08-23T05:59:58.171Z,25.13
2022-08-23T06:02:00.516Z,25.21
2022-08-23T06:04:08.086Z,25.25
2022-08-23T06:06:11.736Z,25.37
2022-08-23T06:08:14.862Z,25.39
2022-08-23T06:10:18.190Z,25.47
2022-08-23T06:12:25.525Z,25.49
2022-08-23T06:14:28.525Z,25.56
2022-08-23T06:16:36.857Z,25.59
2022-08-23T06:18:39.638Z,25.58
2022-08-23T06:21:06.854Z,25.64
2022-08-23T06:23:23.712Z,25.72
2022-08-23T06:25:25.989Z,25.79
2022-08-23T06:27:35.216Z,25.82
2022-08-23T06:29:38.799Z,25.89
2022-08-23T06:32:00.714Z,25.96
2022-08-23T06:34:07.876Z,25.99
2022-08-23T06:36:34.401Z,25.96
2022-08-23T06:39:03.650Z,25.94
2022-08-23T06:41:21.227Z,26.04
2022-08-23T06:43:39.543Z,26.13
2022-08-23T06:46:00.614Z,26.20
2022-08-23T06:48:04.859Z,26.25
2022-08-23T06:50:09.744Z,26.35
2022-08-23T06:52:30.622Z,26.44
2022-08-23T06:54:49.248Z,26.53
2022-08-23T06:57:10.095Z,26.61
2022-08-23T06:59:34.707Z,26.68
2022-08-23T07:02:04.241Z,26.71
2022-08-23T07:04:45.304Z,26.75
2022-08-23T07:07:10.724Z,26.85
2022-08-23T07:09:14.492Z,26.89
2022-08-23T07:11:17.227Z,26.89
2022-08-23T07:13:19.386Z,26.95
2022-08-23T07:15:21.455Z,27.06
2022-08-23T07:17:24.098Z,27.13
2022-08-23T07:19:30.180Z,27.11
2022-08-23T07:21:32.597Z,27.20
2022-08-23T07:23:35.356Z,27.21
2022-08-23T07:25:40.962Z,27.22
2022-08-23T07:27:45.732Z,27.27
2022-08-23T07:29:49.779Z,27.36
2022-08-23T07:31:54.753Z,27.49
2022-08-23T07:34:00.329Z,27.62
2022-08-23T07:36:03.457Z,27.72
2022-08-23T07:38:06.796Z,27.79
2022-08-23T07:40:11.652Z,27.86
2022-08-23T07:42:24.337Z,27.90
2022-08-23T07:44:30.692Z,27.98
2022-08-23T07:46:33.948Z,28.02
2022-08-23T07:48:53.571Z,28.11
2022-08-23T07:51:02.425Z,28.15
2022-08-23T07:53:04.899Z,28.20
2022-08-23T07:55:07.908Z,28.29
2022-08-23T07:57:25.103Z,28.32
2022-08-23T07:59:49.226Z,28.32
2022-08-23T08:02:16.627Z,28.28
2022-08-23T08:04:20.094Z,28.35
2022-08-23T08:06:28.396Z,28.43
2022-08-23T08:08:30.593Z,28.55
2022-08-23T08:10:33.004Z,28.68
2022-08-23T08:12:37.233Z,28.73
2022-08-23T08:14:49.619Z,28.82
2022-08-23T08:16:56.398Z,28.87
2022-08-23T08:19:19.770Z,28.96
2022-08-23T08:21:51.501Z,29.03
2022-08-23T08:24:14.634Z,29.10
2022-08-23T08:26:28.613Z,29.20
2022-08-23T08:28:33.293Z,29.32
2022-08-23T08:30:36.336Z,29.37
2022-08-23T08:32:47.003Z,29.45
2022-08-23T08:34:52.443Z,29.53
2022-08-23T08:36:58.475Z,29.57
2022-08-23T08:39:08.605Z,29.66
2022-08-23T08:41:20.112Z,29.77
2022-08-23T08:43:51.444Z,29.84
2022-08-23T08:46:23.214Z,29.88
2022-08-23T08:48:28.400Z,29.98
2022-08-23T08:50:40.997Z,30.02
2022-08-23T08:53:10.978Z,30.11
2022-08-23T08:55:45.341Z,30.23
2022-08-23T08:57:51.763Z,30.35
2022-08-23T09:00:02.172Z,30.35
2022-08-23T09:02:32.015Z,30.42
2022-08-23T09:04:37.242Z,30.46
2022-08-23T09:07:08.189Z,30.46
2022-08-23T09:09:48.061Z,30.40
2022-08-23T09:12:12.540Z,30.45
2022-08-23T09:14:23.362Z,30.49
2022-08-23T09:16:43.208Z,30.52
2022-08-23T09:18:46.285Z,30.56
2022-08-23T09:20:53.893Z,30.54
2022-08-23T09:23:06.792Z,30.66
2022-08-23T09:25:13.061Z,30.68
2022-08-23T09:27:32.819Z,30.70
2022-08-23T09:29:40.602Z,30.76
2022-08-23T09:31:47.532Z,30.78
2022-08-23T09:33:51.047Z,30.82
2022-08-23T09:36:26.427Z,30.90
2022-08-23T09:38:35.667Z,30.97
2022-08-23T09:40:50.344Z,31.01
2022-08-23T09:43:07.563Z,31.08
2022-08-23T09:45:51.037Z,31.15
2022-08-23T09:47:56.945Z,31.30
2022-08-23T09:50:28.248Z,31.29
2022-08-23T09:52:37.910Z,31.29
2022-08-23T09:54:47.635Z,31.35
2022-08-23T09:56:57.579Z,31.28
2022-08-23T09:59:01.451Z,31.32
2022-08-23T10:01:29.052Z,31.32
2022-08-23T10:03:43.001Z,31.43
2022-08-23T10:05:57.570Z,31.42
2022-08-23T10:08:08.842Z,31.48
2022-08-23T10:10:24.578Z,31.53
2022-08-23T10:12:29.047Z,31.55
2022-08-23T10:14:33.970Z,31.65
2022-08-23T10:16:58.741Z,31.76
2022-08-23T10:19:10.769Z,31.84
2022-08-23T10:21:25.762Z,31.84
2022-08-23T10:24:00.661Z,31.88
2022-08-23T10:26:03.271Z,31.95
2022-08-23T10:28:43.154Z,31.79
2022-08-23T10:31:09.576Z,31.81
2022-08-23T10:33:19.272Z,31.85
2022-08-23T10:35:26.317Z,31.84
2022-08-23T10:37:45.116Z,31.84
2022-08-23T10:40:04.243Z,31.88
2022-08-23T10:42:17.305Z,32.05
2022-08-23T10:44:35.542Z,32.13
2022-08-23T10:47:04.238Z,32.27
2022-08-23T10:49:08.128Z,32.35
2022-08-23T10:51:13.804Z,32.37
2022-08-23T10:53:18.529Z,32.43
2022-08-23T10:55:39.496Z,32.41
2022-08-23T10:57:45.488Z,32.46
2022-08-23T10:59:53.065Z,32.48
2022-08-23T11:02:04.047Z,32.47
2022-08-23T11:04:24.231Z,32.49
2022-08-23T11:06:56.220Z,32.46
2022-08-23T11:09:05.960Z,32.48
2022-08-23T11:11:40.130Z,32.60
2022-08-23T11:13:53.534Z,32.69
2022-08-23T11:15:58.999Z,32.74
2022-08-23T11:18:09.228Z,32.71
2022-08-23T11:20:52.203Z,32.47
2022-08-23T11:23:01.608Z,32.36
2022-08-23T11:25:16.381Z,32.26
2022-08-23T11:27:36.299Z,32.27
2022-08-23T11:29:41.600Z,32.32
2022-08-23T11:32:16.509Z,32.29
2022-08-23T11:34:29.976Z,32.33
2022-08-23T11:36:40.476Z,32.28
2022-08-23T11:38:48.765Z,32.26
2022-08-23T11:40:52.374Z,32.31
2022-08-23T11:43:06.493Z,32.13
2022-08-23T11:45:40.641Z,32.09
2022-08-23T11:47:47.211Z,32.03
2022-08-23T11:50:23.489Z,31.90
2022-08-23T11:52:46.828Z,31.80
2022-08-23T11:55:07.579Z,31.66
2022-08-23T11:57:31.278Z,31.66
2022-08-23T12:00:20.960Z,31.62
2022-08-23T12:03:02.706Z,31.58
2022-08-23T12:05:23.009Z,31.67
2022-08-23T12:07:51.694Z,31.61
2022-08-23T12:09:56.144Z,31.60
2022-08-23T12:11:57.992Z,31.61
2022-08-23T12:14:21.712Z,31.56
2022-08-23T12:16:24.967Z,31.48
2022-08-23T12:18:27.473Z,31.45
2022-08-23T12:20:31.574Z,31.36
2022-08-23T12:23:01.540Z,31.33
2022-08-23T12:25:07.390Z,31.33
2022-08-23T12:27:21.695Z,31.23
2022-08-23T12:30:01.487Z,31.10
2022-08-23T12:32:07.872Z,31.07
2022-08-23T12:34:23.238Z,31.01
2022-08-23T12:37:11.326Z,30.92
2022-08-23T12:39:53.928Z,30.84
2022-08-23T12:42:15.878Z,30.76
2022-08-23T12:44:21.840Z,30.76
2022-08-23T12:46:34.837Z,30.74
2022-08-23T12:48:47.466Z,30.71
2022-08-23T12:50:59.870Z,30.73
2022-08-23T12:53:09.930Z,30.73
2022-08-23T12:55:20.189Z,30.71
2022-08-23T12:57:39.889Z,30.66
2022-08-23T13:00:18.518Z,30.57
2022-08-23T13:02:32.325Z,30.57
2022-08-23T13:04:35.995Z,30.55
2022-08-23T13:06:45.870Z,30.47
2022-08-23T13:09:02.723Z,30.38
2022-08-23T13:11:08.328Z,30.36
2022-08-23T13:13:14.280Z,30.33
2022-08-23T13:15:45.057Z,30.26
2022-08-23T13:17:47.185Z,30.29
2022-08-23T13:20:11.350Z,30.27
2022-08-23T13:22:22.551Z,30.21
2022-08-23T13:24:39.131Z,30.16
2022-08-23T13:26:43.706Z,30.18
2022-08-23T13:29:03.393Z,30.12
2022-08-23T13:31:08.612Z,30.14
2022-08-23T13:33:17.457Z,30.13
2022-08-23T13:35:37.107Z,30.06
2022-08-23T13:37:46.346Z,30.11
2022-08-23T13:40:01.251Z,30.10
2022-08-23T13:42:03.838Z,30.03
2022-08-23T13:44:09.160Z,29.97
2022-08-23T13:46:22.471Z,30.00
2022-08-23T13:48:33.093Z,29.98
2022-08-23T13:50:37.363Z,29.95
2022-08-23T13:52:56.602Z,29.91
2022-08-23T13:55:02.083Z,29.85
2022-08-23T13:57:15.895Z,29.77
2022-08-23T13:59:36.898Z,29.72
2022-08-23T14:01:39.147Z,29.75
2022-08-23T14:03:41.387Z,29.76
2022-08-23T14:05:43.764Z,29.65
2022-08-23T14:07:47.863Z,29.68
2022-08-23T14:09:54.404Z,29.68
2022-08-23T14:11:59.925Z,29.66
2022-08-23T14:14:05.374Z,29.70
2022-08-23T14:18:34.652Z,29.63
2022-08-23T14:20:44.281Z,29.57
2022-08-23T14:22:48.343Z,29.58
2022-08-23T14:24:51.808Z,29.64
2022-08-23T14:26:56.146Z,29.61
2022-08-23T14:28:58.241Z,29.64
2022-08-23T14:31:01.044Z,29.67
2022-08-23T14:33:06.258Z,29.62
2022-08-23T14:35:09.527Z,29.60
2022-08-23T14:38:00.706Z,29.56
2022-08-23T14:39:35.862Z,29.59
2022-08-23T14:41:37.843Z,29.65
2022-08-23T14:43:40.079Z,29.67
2022-08-23T14:45:42.605Z,29.66
2022-08-23T14:47:44.609Z,29.66
2022-08-23T14:49:52.096Z,29.67
2022-08-23T14:51:55.993Z,29.72
2022-08-23T14:53:58.362Z,29.74
2022-08-23T14:56:20.673Z,29.77
2022-08-23T14:58:25.210Z,29.68
2022-08-23T15:00:27.660Z,29.61
2022-08-23T15:02:30.312Z,29.65
2022-08-23T15:04:34.738Z,29.63
2022-08-23T15:07:00.440Z,29.66
2022-08-23T15:09:04.888Z,29.70
2022-08-23T15:13:35.505Z,29.77
2022-08-23T15:15:39.524Z,29.78
2022-08-23T15:17:57.075Z,29.77
2022-08-23T15:19:59.650Z,29.83
2022-08-23T15:22:10.016Z,29.80
2022-08-23T15:24:24.061Z,29.84
2022-08-23T15:26:29.618Z,29.84
2022-08-23T15:28:32.200Z,29.86
2022-08-23T15:30:34.966Z,29.86
2022-08-23T15:32:37.527Z,29.91
2022-08-23T15:34:44.348Z,29.95
2022-08-23T15:36:48.914Z,29.97
2022-08-23T15:38:51.756Z,29.98
2022-08-23T15:40:57.308Z,29.98
2022-08-23T15:43:03.466Z,29.94
2022-08-23T15:45:07.140Z,29.91
2022-08-23T15:47:20.300Z,29.95
2022-08-23T15:49:24.363Z,30.00
2022-08-23T15:51:26.696Z,30.05
2022-08-23T15:53:28.933Z,30.08
2022-08-23T15:55:37.263Z,30.01
2022-08-23T15:57:51.740Z,29.82
2022-08-23T15:59:55.856Z,29.56
2022-08-23T16:01:58.437Z,29.43
2022-08-23T16:04:02.673Z,29.23
2022-08-23T16:06:06.228Z,29.09
2022-08-23T16:08:12.230Z,28.84
2022-08-23T16:10:15.562Z,28.58
2022-08-23T16:12:17.862Z,28.41
2022-08-23T16:14:20.272Z,28.47
2022-08-23T16:16:26.425Z,28.46
2022-08-23T16:18:28.737Z,28.49
2022-08-23T16:20:33.606Z,28.47
2022-08-23T16:22:36.753Z,28.49
2022-08-23T16:24:41.776Z,28.55
2022-08-23T16:26:45.661Z,28.60
2022-08-23T16:28:50.097Z,28.66
2022-08-23T16:30:52.690Z,28.69
2022-08-23T16:32:56.132Z,28.73
2022-08-23T16:34:58.684Z,28.78
2022-08-23T16:37:04.881Z,28.81
2022-08-23T16:39:07.997Z,28.87
2022-08-23T16:41:10.294Z,28.91
2022-08-23T16:43:13.002Z,28.95
2022-08-23T16:45:15.155Z,28.97
2022-08-23T16:47:18.426Z,28.97
2022-08-23T16:49:20.760Z,28.97
2022-08-23T16:51:26.218Z,28.98
2022-08-23T16:53:28.508Z,28.94
2022-08-23T16:55:30.963Z,28.91
2022-08-23T16:57:33.828Z,28.87
2022-08-23T16:59:40.394Z,28.87
2022-08-23T17:01:57.891Z,28.81
2022-08-23T17:04:00.038Z,28.84
2022-08-23T17:06:02.207Z,28.79
2022-08-23T17:08:04.726Z,28.75
2022-08-23T17:10:08.818Z,28.72
2022-08-23T17:12:38.311Z,28.61
2022-08-23T17:14:40.475Z,28.66
2022-08-23T17:16:44.242Z,28.64
2022-08-23T17:18:46.529Z,28.61
2022-08-23T17:20:53.392Z,28.58
2022-08-23T17:22:56.864Z,28.58
2022-08-23T17:24:59.007Z,28.56
2022-08-23T17:27:04.017Z,28.54
2022-08-23T17:29:07.444Z,28.53
2022-08-23T17:31:13.560Z,28.47
2022-08-23T17:33:15.785Z,28.44
2022-08-23T17:35:27.310Z,28.41
2022-08-23T17:37:29.763Z,28.42
2022-08-23T17:39:32.034Z,28.17
2022-08-23T17:41:37.013Z,27.96
2022-08-23T17:43:39.191Z,27.79
2022-08-23T17:45:46.603Z,27.78
2022-08-23T17:47:48.994Z,27.66
2022-08-23T17:49:55.466Z,27.58
2022-08-23T17:51:57.678Z,27.52
2022-08-23T17:54:00.176Z,27.54
2022-08-23T17:56:02.344Z,27.35
2022-08-23T17:58:09.957Z,27.17
2022-08-23T18:00:16.814Z,27.11
2022-08-23T18:02:20.871Z,27.06
2022-08-23T18:04:23.037Z,26.87
2022-08-23T18:06:26.720Z,26.74
2022-08-23T18:08:29.034Z,26.60
2022-08-23T18:10:31.864Z,26.55
2022-08-23T18:12:34.634Z,26.44
2022-08-23T18:14:36.780Z,26.23
2022-08-23T18:16:39.635Z,26.10
2022-08-23T18:18:42.287Z,26.16
2022-08-23T18:20:44.846Z,26.11
2022-08-23T18:22:47.957Z,26.04
2022-08-23T18:24:50.119Z,25.99
2022-08-23T18:27:10.877Z,25.91
2022-08-23T18:29:14.657Z,25.83
2022-08-23T18:31:19.849Z,25.77
2022-08-23T18:33:25.465Z,25.74
2022-08-23T18:35:34.739Z,25.79
2022-08-23T18:37:36.938Z,25.79
2022-08-23T18:39:39.113Z,25.89
2022-08-23T18:41:42.451Z,25.90
2022-08-23T18:43:44.818Z,25.98
2022-08-23T18:45:49.009Z,26.03
2022-08-23T18:47:50.951Z,26.02
2022-08-23T18:49:52.851Z,25.93
2022-08-23T18:51:54.926Z,25.75
2022-08-23T18:53:57.626Z,25.67
2022-08-23T18:55:59.641Z,25.71
2022-08-23T18:58:02.428Z,25.82
2022-08-23T19:00:05.840Z,25.84
2022-08-23T19:02:08.427Z,25.95
2022-08-23T19:04:11.335Z,26.03
2022-08-23T19:06:13.225Z,26.08
2022-08-23T19:08:15.672Z,26.14
2022-08-23T19:10:20.487Z,26.19
2022-08-23T19:12:22.918Z,26.22
2022-08-23T19:14:24.965Z,26.24
2022-08-23T19:16:27.584Z,26.24
2022-08-23T19:18:30.415Z,26.26
2022-08-23T19:20:33.150Z,26.22
2022-08-23T19:22:35.814Z,26.19
2022-08-23T19:24:38.454Z,26.07
2022-08-23T19:26:44.744Z,25.95
2022-08-23T19:28:47.880Z,25.73
2022-08-23T19:30:52.404Z,25.58
2022-08-23T19:32:55.102Z,25.50
2022-08-23T19:34:59.018Z,25.42
2022-08-23T19:37:01.838Z,25.30
2022-08-23T19:39:06.367Z,25.24
2022-08-23T19:41:09.701Z,25.13
2022-08-23T19:43:12.399Z,24.94
2022-08-23T19:45:15.832Z,24.89
2022-08-23T19:47:21.135Z,24.72
2022-08-23T19:49:27.326Z,24.69
2022-08-23T19:51:30.108Z,24.60
2022-08-23T19:53:32.526Z,24.61
2022-08-23T19:55:38.422Z,24.60
2022-08-23T19:57:40.502Z,24.65
2022-08-23T19:59:43.381Z,24.61
2022-08-23T20:01:46.554Z,24.68
2022-08-23T20:03:49.308Z,24.68
2022-08-23T20:05:53.113Z,24.63
2022-08-23T20:07:59.191Z,24.71
2022-08-23T20:10:01.286Z,24.75
2022-08-23T20:12:03.823Z,24.85
2022-08-23T20:14:07.170Z,24.84
2022-08-23T20:16:09.255Z,24.87
2022-08-23T20:18:11.601Z,24.95
2022-08-23T20:20:14.188Z,24.97
2022-08-23T20:22:36.312Z,25.02
2022-08-23T20:24:51.730Z,25.07
2022-08-23T20:26:55.092Z,25.15
2022-08-23T20:29:00.276Z,25.18
2022-08-23T20:31:23.663Z,25.12
2022-08-23T20:33:26.321Z,25.22
2022-08-23T20:35:28.986Z,25.27
2022-08-23T20:37:34.192Z,25.32
2022-08-23T20:39:36.582Z,25.29
2022-08-23T20:41:40.395Z,25.27
2022-08-23T20:43:42.717Z,25.16
2022-08-23T20:45:45.184Z,25.13
2022-08-23T20:47:52.418Z,25.09
2022-08-23T20:49:54.486Z,25.13
2022-08-23T20:51:57.118Z,25.09
2022-08-23T20:54:00.468Z,24.93
2022-08-23T20:56:03.038Z,24.95
2022-08-23T20:58:08.672Z,24.91
2022-08-23T21:00:14.428Z,24.76
2022-08-23T21:02:16.785Z,24.73
2022-08-23T21:04:19.789Z,24.65
2022-08-23T21:06:36.381Z,24.77
2022-08-23T21:08:43.447Z,24.67
2022-08-23T21:10:46.207Z,24.64
2022-08-23T21:12:48.801Z,24.64
2022-08-23T21:14:51.059Z,24.53
2022-08-23T21:16:53.435Z,24.35
2022-08-23T21:18:56.996Z,24.37
2022-08-23T21:20:59.839Z,24.34
2022-08-23T21:23:02.250Z,24.23
2022-08-23T21:25:05.716Z,24.26
2022-08-23T21:27:09.463Z,24.23
2022-08-23T21:29:12.192Z,24.29
2022-08-23T21:31:17.530Z,24.33
2022-08-23T21:33:22.199Z,24.35
2022-08-23T21:35:24.370Z,24.38
2022-08-23T21:37:27.469Z,24.39
2022-08-23T21:39:29.844Z,24.47
2022-08-23T21:41:32.199Z,24.53
2022-08-23T21:43:37.431Z,24.58
2022-08-23T21:45:41.540Z,24.62
2022-08-23T21:47:44.237Z,24.65
2022-08-23T21:49:46.987Z,24.67
2022-08-23T21:51:50.063Z,24.70
2022-08-23T21:53:54.406Z,24.71
2022-08-23T21:55:58.396Z,24.72
2022-08-23T21:58:00.652Z,24.73
2022-08-23T22:00:04.231Z,24.71
2022-08-23T22:02:14.796Z,24.73
2022-08-23T22:04:17.587Z,24.71
2022-08-23T22:06:19.942Z,24.71
2022-08-23T22:08:22.124Z,24.69
2022-08-23T22:10:25.788Z,24.67
2022-08-23T22:12:28.516Z,24.66
2022-08-23T22:14:32.371Z,24.68
2022-08-23T22:16:35.487Z,24.64
2022-08-23T22:18:37.710Z,24.62
2022-08-23T22:20:40.438Z,24.61
2022-08-23T22:22:43.786Z,24.58
2022-08-23T22:24:46.702Z,24.54
2022-08-23T22:26:49.133Z,24.52
2022-08-23T22:28:54.891Z,24.45
2022-08-23T22:31:01.264Z,24.43
2022-08-23T22:33:04.024Z,24.39
2022-08-23T22:35:09.005Z,24.35
2022-08-23T22:37:11.349Z,24.26
2022-08-23T22:39:13.634Z,24.29
2022-08-23T22:41:18.462Z,24.31
2022-08-23T22:43:21.116Z,24.28
2022-08-23T22:45:23.351Z,24.26
2022-08-23T22:47:27.350Z,24.27
2022-08-23T22:49:31.046Z,24.28
2022-08-23T22:51:35.093Z,24.27
2022-08-23T22:53:45.067Z,24.22
2022-08-23T22:55:51.344Z,24.23
2022-08-23T22:57:53.597Z,24.21
2022-08-23T22:59:58.500Z,24.18
2022-08-23T23:02:03.230Z,24.15
2022-08-23T23:04:09.100Z,24.09
2022-08-23T23:06:15.408Z,24.10
2022-08-23T23:08:30.261Z,24.08
2022-08-23T23:10:32.567Z,24.06
2022-08-23T23:12:34.665Z,24.05
2022-08-23T23:14:37.143Z,24.08
2022-08-23T23:16:39.994Z,24.08
2022-08-23T23:19:04.687Z,24.04
2022-08-23T23:21:09.411Z,24.05
2022-08-23T23:23:16.254Z,24.04
2022-08-23T23:25:18.530Z,24.05
2022-08-23T23:27:20.906Z,24.04
2022-08-23T23:29:23.962Z,24.01
2022-08-23T23:31:26.632Z,24.00
2022-08-23T23:33:33.788Z,23.97
2022-08-23T23:35:37.837Z,23.98
2022-08-23T23:37:40.306Z,23.98
2022-08-23T23:39:42.435Z,24.00
2022-08-23T23:41:45.037Z,23.95
2022-08-23T23:43:47.876Z,23.91
2022-08-23T23:45:50.159Z,23.93
2022-08-23T23:47:52.541Z,23.90
2022-08-23T23:49:54.831Z,23.90
2022-08-23T23:51:57.401Z,23.90
2022-08-23T23:54:01.107Z,23.89
2022-08-23T23:56:10.677Z,23.87
2022-08-23T23:58:12.795Z,23.89
